Aérodrome :
LOGIN :

S'inscrire | Disclaimer

   EN    FR    IT 

 










Légende :    VFR   VFR Marginal   IFR   IFR Intensif   IFR Très Intensif
Visi : 
Plafond : 
>= 8 km
>= 3000ft
5 à 8 km
1000 à 3000 ft
1500m à 5 km
500 à 1000 ft
800 à 1500m
200 à 500 ft
< 800m
< 200 ft
Symboles :   Orages  Brouillard  Fortes neiges  Fortes précipitations  Vent > 20 kt
SIGMETs :   Divers  Orages  Givrage  Turbulence  Onde Orograph.  Cendres Volcan.







- Altitude de l'aérodrome : 33 ft
- Code IATA : MHZ


EGUN - RAF Mildenhall

DERNIER METAR :
  • 252013Z AUTO 30006KT 9999 BKN021 BKN027 03/03 A2994 RMK AO2 CIG 021V027 BKN021 V SCT

METARs EXPIRÉS :
  • 251958Z AUTO 32004KT 9999 SCT023 SCT028 03/03 A2994 RMK AO2 UPB20E31 SLP142 P0000 T00290029
  • 251956Z AUTO 32004KT 9999 SCT023 SCT028 03/03 A2994 RMK AO2 UPB20E31
  • 251931Z AUTO 00000KT 9999 SCT019 BKN028 04/04 A2993 RMK AO2 UPB20E31 CIG 019V030 BKN V OVC
  • 251920Z AUTO 04009KT 9999 UP FEW015 SCT024 BKN030 05/05 A2993 RMK AO2 UPB20
  • 251858Z AUTO 30005KT 9999 SCT026 04/04 A2992 RMK AO2 SLP136 T00370037
  • 251758Z AUTO 34004KT 9999 CLR 05/04 A2992 RMK AO2 SLP136 60000 T00450044 10117 20040 50011

TAF TAF EGUN
Valide du 25 à 20h jusqu'au 27 à 02h UTC


252003Z 2520/2702 33009KT 9999 BKN030 QNH2990INS
BECMG 2607/2608 36012G20KT 8000 -SHRA BKN025 610509 510003 QNH2997INS
TEMPO 2608/2611 36015G25KT
BECMG 2621/2622 34009KT 9999 NSW BKN050 QNH3006INS TX08/2612Z TN02/2603Z
Pas de NOTAMs connus pour ce terrain.



MET'MAP, la Météo Aéronautique d'un coup d'oeil ! - Copyright ORBIFLY Décembre 2007 - Disclaimer

ORBIFLY MET'MAP TEAM :

Programmation & Développement : Alexandra Zaïnal
Conception & Développement : Baudouin d'Aumeries
Co-Programmation & Développement : Marc-Olivier Méhu
Soutien technique & logistique : Manuel Goepfert

Contact : metmap@orbifly.com




SOURCES & CREDITS :

   NOAA